sensor_id;sensor_type;location;lat;lon;timestamp;pressure;altitude;pressure_sealevel;temperature
63113;BMP280;49206;48.020;21.378;2022-12-04T00:00:21;101441.09;;;3.52
63113;BMP280;49206;48.020;21.378;2022-12-04T00:01:26;101436.88;;;3.46
63113;BMP280;49206;48.020;21.378;2022-12-04T00:02:29;101440.59;;;3.55
63113;BMP280;49206;48.020;21.378;2022-12-04T00:03:32;101439.53;;;3.56
63113;BMP280;49206;48.020;21.378;2022-12-04T00:04:34;101439.81;;;3.54
63113;BMP280;49206;48.020;21.378;2022-12-04T00:05:37;101443.22;;;3.60
63113;BMP280;49206;48.020;21.378;2022-12-04T00:06:39;101443.19;;;3.55
63113;BMP280;49206;48.020;21.378;2022-12-04T00:07:41;101449.50;;;3.64
63113;BMP280;49206;48.020;21.378;2022-12-04T00:08:46;101442.72;;;3.63
63113;BMP280;49206;48.020;21.378;2022-12-04T00:09:49;101455.78;;;3.68
63113;BMP280;49206;48.020;21.378;2022-12-04T00:10:51;101456.31;;;3.65
63113;BMP280;49206;48.020;21.378;2022-12-04T00:11:53;101453.66;;;3.60
63113;BMP280;49206;48.020;21.378;2022-12-04T00:12:56;101448.75;;;3.63
63113;BMP280;49206;48.020;21.378;2022-12-04T00:14:00;101454.50;;;3.65
63113;BMP280;49206;48.020;21.378;2022-12-04T00:15:08;101445.84;;;3.65
63113;BMP280;49206;48.020;21.378;2022-12-04T00:16:29;101449.25;;;3.65
63113;BMP280;49206;48.020;21.378;2022-12-04T00:17:31;101449.78;;;3.67
63113;BMP280;49206;48.020;21.378;2022-12-04T00:18:34;101446.13;;;3.68
63113;BMP280;49206;48.020;21.378;2022-12-04T00:19:36;101451.34;;;3.68
63113;BMP280;49206;48.020;21.378;2022-12-04T00:20:38;101452.69;;;3.66
63113;BMP280;49206;48.020;21.378;2022-12-04T00:21:41;101461.00;;;3.63
63113;BMP280;49206;48.020;21.378;2022-12-04T00:22:44;101454.75;;;3.64
63113;BMP280;49206;48.020;21.378;2022-12-04T00:23:47;101466.72;;;3.60
63113;BMP280;49206;48.020;21.378;2022-12-04T00:24:49;101463.59;;;3.58
63113;BMP280;49206;48.020;21.378;2022-12-04T00:27:21;101468.84;;;3.63
63113;BMP280;49206;48.020;21.378;2022-12-04T00:28:23;101461.50;;;3.60
63113;BMP280;49206;48.020;21.378;2022-12-04T00:29:25;101457.84;;;3.61
63113;BMP280;49206;48.020;21.378;2022-12-04T00:30:28;101464.69;;;3.67
63113;BMP280;49206;48.020;21.378;2022-12-04T00:31:30;101457.09;;;3.65
63113;BMP280;49206;48.020;21.378;2022-12-04T00:32:33;101470.41;;;3.64
63113;BMP280;49206;48.020;21.378;2022-12-04T00:33:35;101456.28;;;3.60
63113;BMP280;49206;48.020;21.378;2022-12-04T00:34:38;101459.19;;;3.63
63113;BMP280;49206;48.020;21.378;2022-12-04T00:35:40;101464.63;;;3.57
63113;BMP280;49206;48.020;21.378;2022-12-04T00:36:42;101468.34;;;3.71
63113;BMP280;49206;48.020;21.378;2022-12-04T00:37:45;101463.63;;;3.73
63113;BMP280;49206;48.020;21.378;2022-12-04T00:38:47;101471.69;;;3.61
63113;BMP280;49206;48.020;21.378;2022-12-04T00:39:50;101459.13;;;3.58
63113;BMP280;49206;48.020;21.378;2022-12-04T00:40:53;101465.97;;;3.59
63113;BMP280;49206;48.020;21.378;2022-12-04T00:41:55;101468.56;;;3.59
63113;BMP280;49206;48.020;21.378;2022-12-04T00:42:58;101461.50;;;3.60
63113;BMP280;49206;48.020;21.378;2022-12-04T00:44:18;101465.66;;;3.56
63113;BMP280;49206;48.020;21.378;2022-12-04T00:45:21;101462.03;;;3.57
63113;BMP280;49206;48.020;21.378;2022-12-04T00:46:24;101461.50;;;3.60
63113;BMP280;49206;48.020;21.378;2022-12-04T00:47:27;101462.53;;;3.54
63113;BMP280;49206;48.020;21.378;2022-12-04T00:48:29;101458.38;;;3.58
63113;BMP280;49206;48.020;21.378;2022-12-04T00:49:31;101460.72;;;3.54
63113;BMP280;49206;48.020;21.378;2022-12-04T00:50:34;101461.22;;;3.56
63113;BMP280;49206;48.020;21.378;2022-12-04T00:51:37;101459.91;;;3.54
63113;BMP280;49206;48.020;21.378;2022-12-04T00:52:39;101461.75;;;3.58
63113;BMP280;49206;48.020;21.378;2022-12-04T00:53:42;101461.81;;;3.63
63113;BMP280;49206;48.020;21.378;2022-12-04T00:54:45;101457.34;;;3.64
63113;BMP280;49206;48.020;21.378;2022-12-04T00:55:47;101453.97;;;3.63
63113;BMP280;49206;48.020;21.378;2022-12-04T00:56:49;101455.75;;;3.58
63113;BMP280;49206;48.020;21.378;2022-12-04T00:57:51;101459.97;;;3.64
63113;BMP280;49206;48.020;21.378;2022-12-04T00:59:00;101466.69;;;3.55
63113;BMP280;49206;48.020;21.378;2022-12-04T01:00:05;101465.38;;;3.52
63113;BMP280;49206;48.020;21.378;2022-12-04T01:01:12;101460.19;;;3.57
63113;BMP280;49206;48.020;21.378;2022-12-04T01:02:15;101458.34;;;3.53
63113;BMP280;49206;48.020;21.378;2022-12-04T01:03:17;101458.84;;;3.50
63113;BMP280;49206;48.020;21.378;2022-12-04T01:04:24;101459.88;;;3.49
63113;BMP280;49206;48.020;21.378;2022-12-04T01:05:27;101459.38;;;3.52
63113;BMP280;49206;48.020;21.378;2022-12-04T01:06:32;101458.09;;;3.54
63113;BMP280;49206;48.020;21.378;2022-12-04T01:07:36;101455.97;;;3.51
63113;BMP280;49206;48.020;21.378;2022-12-04T01:08:39;101457.31;;;3.59
63113;BMP280;49206;48.020;21.378;2022-12-04T01:09:41;101453.63;;;3.50
63113;BMP280;49206;48.020;21.378;2022-12-04T01:10:43;101457.06;;;3.55
63113;BMP280;49206;48.020;21.378;2022-12-04T01:11:46;101456.59;;;3.63
63113;BMP280;49206;48.020;21.378;2022-12-04T01:12:50;101460.44;;;3.56
63113;BMP280;49206;48.020;21.378;2022-12-04T01:13:53;101464.09;;;3.55
63113;BMP280;49206;48.020;21.378;2022-12-04T01:14:56;101459.91;;;3.54
63113;BMP280;49206;48.020;21.378;2022-12-04T01:15:58;101462.75;;;3.52
63113;BMP280;49206;48.020;21.378;2022-12-04T01:17:01;101462.50;;;3.49
63113;BMP280;49206;48.020;21.378;2022-12-04T01:18:03;101460.16;;;3.52
63113;BMP280;49206;48.020;21.378;2022-12-04T01:19:09;101457.81;;;3.56
63113;BMP280;49206;48.020;21.378;2022-12-04T01:20:13;101469.56;;;3.53
63113;BMP280;49206;48.020;21.378;2022-12-04T01:21:16;101462.75;;;3.52
63113;BMP280;49206;48.020;21.378;2022-12-04T01:22:18;101469.28;;;3.50
63113;BMP280;49206;48.020;21.378;2022-12-04T01:23:20;101462.75;;;3.52
63113;BMP280;49206;48.020;21.378;2022-12-04T01:24:23;101465.63;;;3.51
63113;BMP280;49206;48.020;21.378;2022-12-04T01:25:25;101464.56;;;3.42
63113;BMP280;49206;48.020;21.378;2022-12-04T01:26:28;101458.25;;;3.38
63113;BMP280;49206;48.020;21.378;2022-12-04T01:27:30;101467.16;;;3.47
63113;BMP280;49206;48.020;21.378;2022-12-04T01:28:32;101463.75;;;3.36
63113;BMP280;49206;48.020;21.378;2022-12-04T01:29:35;101461.66;;;3.43
63113;BMP280;49206;48.020;21.378;2022-12-04T01:30:37;101461.41;;;3.40
63113;BMP280;49206;48.020;21.378;2022-12-04T01:31:40;101461.66;;;3.38
63113;BMP280;49206;48.020;21.378;2022-12-04T01:32:43;101458.53;;;3.36
63113;BMP280;49206;48.020;21.378;2022-12-04T01:33:46;101457.22;;;3.34
63113;BMP280;49206;48.020;21.378;2022-12-04T01:34:49;101457.69;;;3.31
63113;BMP280;49206;48.020;21.378;2022-12-04T01:35:55;101458.78;;;3.35
63113;BMP280;49206;48.020;21.378;2022-12-04T01:36:58;101454.06;;;3.32
63113;BMP280;49206;48.020;21.378;2022-12-04T01:38:00;101453.53;;;3.30
63113;BMP280;49206;48.020;21.378;2022-12-04T01:39:02;101452.22;;;3.27
63113;BMP280;49206;48.020;21.378;2022-12-04T01:40:05;101452.44;;;3.26
63113;BMP280;49206;48.020;21.378;2022-12-04T01:41:10;101449.28;;;3.24
63113;BMP280;49206;48.020;21.378;2022-12-04T01:42:14;101447.47;;;3.24
63113;BMP280;49206;48.020;21.378;2022-12-04T01:43:17;101444.88;;;3.24
63113;BMP280;49206;48.020;21.378;2022-12-04T01:44:22;101448.56;;;3.28
63113;BMP280;49206;48.020;21.378;2022-12-04T01:45:40;101449.06;;;3.30
63113;BMP280;49206;48.020;21.378;2022-12-04T01:46:45;101444.38;;;3.27
63113;BMP280;49206;48.020;21.378;2022-12-04T01:47:48;101449.28;;;3.24
63113;BMP280;49206;48.020;21.378;2022-12-04T01:48:51;101443.38;;;3.33
63113;BMP280;49206;48.020;21.378;2022-12-04T01:49:59;101439.16;;;3.27
63113;BMP280;49206;48.020;21.378;2022-12-04T01:51:05;101442.53;;;3.28
63113;BMP280;49206;48.020;21.378;2022-12-04T01:52:28;101435.53;;;3.33
63113;BMP280;49206;48.020;21.378;2022-12-04T01:53:31;101435.00;;;3.31
63113;BMP280;49206;48.020;21.378;2022-12-04T01:54:36;101427.22;;;3.36
63113;BMP280;49206;48.020;21.378;2022-12-04T01:55:41;101433.75;;;3.44
63113;BMP280;49206;48.020;21.378;2022-12-04T01:56:48;101434.28;;;3.41
63113;BMP280;49206;48.020;21.378;2022-12-04T01:57:52;101424.31;;;3.38
63113;BMP280;49206;48.020;21.378;2022-12-04T01:58:58;101436.88;;;3.41
63113;BMP280;49206;48.020;21.378;2022-12-04T02:00:14;101439.50;;;3.41
63113;BMP280;49206;48.020;21.378;2022-12-04T02:01:17;101438.41;;;3.37
63113;BMP280;49206;48.020;21.378;2022-12-04T02:02:32;101442.09;;;3.41
63113;BMP280;49206;48.020;21.378;2022-12-04T02:03:36;101445.25;;;3.43
63113;BMP280;49206;48.020;21.378;2022-12-04T02:04:39;101441.03;;;3.37
63113;BMP280;49206;48.020;21.378;2022-12-04T02:05:42;101439.50;;;3.41
63113;BMP280;49206;48.020;21.378;2022-12-04T02:06:44;101432.22;;;3.48
63113;BMP280;49206;48.020;21.378;2022-12-04T02:07:50;101435.31;;;3.45
63113;BMP280;49206;48.020;21.378;2022-12-04T02:08:54;101431.91;;;3.44
63113;BMP280;49206;48.020;21.378;2022-12-04T02:09:56;101441.56;;;3.44
63113;BMP280;49206;48.020;21.378;2022-12-04T02:12:19;101444.22;;;3.49
63113;BMP280;49206;48.020;21.378;2022-12-04T02:14:07;101440.28;;;3.46
63113;BMP280;49206;48.020;21.378;2022-12-04T02:21:49;101448.97;;;3.57
63113;BMP280;49206;48.020;21.378;2022-12-04T02:25:37;101447.31;;;3.46
63113;BMP280;49206;48.020;21.378;2022-12-04T02:30:19;101435.56;;;3.43
63113;BMP280;49206;48.020;21.378;2022-12-04T02:31:29;101442.13;;;3.51
63113;BMP280;49206;48.020;21.378;2022-12-04T02:32:43;101439.75;;;3.49
63113;BMP280;49206;48.020;21.378;2022-12-04T02:36:05;101438.44;;;3.47
63113;BMP280;49206;48.020;21.378;2022-12-04T02:37:15;101429.66;;;3.58
63113;BMP280;49206;48.020;21.378;2022-12-04T02:39:39;101430.66;;;3.52
63113;BMP280;49206;48.020;21.378;2022-12-04T02:41:56;101431.19;;;3.54
63113;BMP280;49206;48.020;21.378;2022-12-04T02:43:19;101425.94;;;3.49
63113;BMP280;49206;48.020;21.378;2022-12-04T02:44:34;101436.88;;;3.46
63113;BMP280;49206;48.020;21.378;2022-12-04T02:45:47;101433.53;;;3.50
63113;BMP280;49206;48.020;21.378;2022-12-04T02:46:58;101432.69;;;3.45
63113;BMP280;49206;48.020;21.378;2022-12-04T02:48:02;101429.28;;;3.44
63113;BMP280;49206;48.020;21.378;2022-12-04T02:49:11;101424.66;;;3.51
63113;BMP280;49206;48.020;21.378;2022-12-04T02:50:17;101423.31;;;3.44
63113;BMP280;49206;48.020;21.378;2022-12-04T02:51:26;101430.09;;;3.45
63113;BMP280;49206;48.020;21.378;2022-12-04T02:52:38;101428.78;;;3.47
63113;BMP280;49206;48.020;21.378;2022-12-04T02:53:46;101435.31;;;3.45
63113;BMP280;49206;48.020;21.378;2022-12-04T02:54:56;101432.97;;;3.48
63113;BMP280;49206;48.020;21.378;2022-12-04T02:56:15;101444.22;;;3.49
63113;BMP280;49206;48.020;21.378;2022-12-04T02:57:24;101440.28;;;3.41
63113;BMP280;49206;48.020;21.378;2022-12-04T02:58:32;101435.31;;;3.40
63113;BMP280;49206;48.020;21.378;2022-12-04T02:59:38;101438.41;;;3.37
63113;BMP280;49206;48.020;21.378;2022-12-04T03:00:44;101430.63;;;3.42
63113;BMP280;49206;48.020;21.378;2022-12-04T03:01:50;101427.97;;;3.37
63113;BMP280;49206;48.020;21.378;2022-12-04T03:03:00;101430.56;;;3.32
63113;BMP280;49206;48.020;21.378;2022-12-04T03:05:13;101431.56;;;3.26
63113;BMP280;49206;48.020;21.378;2022-12-04T03:06:18;101427.91;;;3.27
63113;BMP280;49206;48.020;21.378;2022-12-04T03:07:35;101417.97;;;3.24
63113;BMP280;49206;48.020;21.378;2022-12-04T03:08:47;101425.28;;;3.22
63113;BMP280;49206;48.020;21.378;2022-12-04T03:09:54;101424.22;;;3.23
63113;BMP280;49206;48.020;21.378;2022-12-04T03:10:59;101423.47;;;3.22
63113;BMP280;49206;48.020;21.378;2022-12-04T03:12:10;101417.47;;;3.27
63113;BMP280;49206;48.020;21.378;2022-12-04T03:13:25;101419.03;;;3.28
63113;BMP280;49206;48.020;21.378;2022-12-04T03:14:33;101421.97;;;3.31
63113;BMP280;49206;48.020;21.378;2022-12-04T03:15:41;101417.75;;;3.30
63113;BMP280;49206;48.020;21.378;2022-12-04T03:16:45;101417.47;;;3.27
63113;BMP280;49206;48.020;21.378;2022-12-04T03:17:59;101420.06;;;3.22
63113;BMP280;49206;48.020;21.378;2022-12-04T03:19:13;101423.94;;;3.14
63113;BMP280;49206;48.020;21.378;2022-12-04T03:20:18;101421.59;;;3.13
63113;BMP280;49206;48.020;21.378;2022-12-04T03:21:25;101427.81;;;3.07
63113;BMP280;49206;48.020;21.378;2022-12-04T03:22:30;101429.34;;;3.03
63113;BMP280;49206;48.020;21.378;2022-12-04T03:25:05;101426.22;;;3.06
63113;BMP280;49206;48.020;21.378;2022-12-04T03:26:28;101429.34;;;3.03
63113;BMP280;49206;48.020;21.378;2022-12-04T03:29:22;101418.03;;;2.92
63113;BMP280;49206;48.020;21.378;2022-12-04T03:30:42;101415.97;;;2.94
63113;BMP280;49206;48.020;21.378;2022-12-04T03:31:51;101422.50;;;2.97
63113;BMP280;49206;48.020;21.378;2022-12-04T03:32:59;101419.88;;;2.97
63113;BMP280;49206;48.020;21.378;2022-12-04T03:34:04;101419.16;;;3.01
63113;BMP280;49206;48.020;21.378;2022-12-04T03:35:14;101416.03;;;2.99
63113;BMP280;49206;48.020;21.378;2022-12-04T03:36:23;101412.81;;;2.92
63113;BMP280;49206;48.020;21.378;2022-12-04T03:37:40;101423.56;;;3.01
63113;BMP280;49206;48.020;21.378;2022-12-04T03:39:00;101413.66;;;2.98
63113;BMP280;49206;48.020;21.378;2022-12-04T03:40:34;101417.59;;;3.00
63113;BMP280;49206;48.020;21.378;2022-12-04T03:43:19;101413.72;;;3.08
63113;BMP280;49206;48.020;21.378;2022-12-04T03:45:18;101415.53;;;3.07
63113;BMP280;49206;48.020;21.378;2022-12-04T03:45:56;101413.25;;;3.11
63113;BMP280;49206;48.020;21.378;2022-12-04T03:47:04;101409.63;;;3.17
63113;BMP280;49206;48.020;21.378;2022-12-04T03:48:18;101407.50;;;3.14
63113;BMP280;49206;48.020;21.378;2022-12-04T03:49:35;101401.00;;;3.16
63113;BMP280;49206;48.020;21.378;2022-12-04T03:50:49;101403.31;;;3.13
63113;BMP280;49206;48.020;21.378;2022-12-04T03:52:03;101409.88;;;3.15
63113;BMP280;49206;48.020;21.378;2022-12-04T03:53:23;101409.28;;;3.08
63113;BMP280;49206;48.020;21.378;2022-12-04T03:54:45;101415.25;;;3.04
63113;BMP280;49206;48.020;21.378;2022-12-04T03:56:37;101413.97;;;3.06
63113;BMP280;49206;48.020;21.378;2022-12-04T03:57:42;101418.72;;;3.09
63113;BMP280;49206;48.020;21.378;2022-12-04T03:58:50;101419.22;;;3.11
63113;BMP280;49206;48.020;21.378;2022-12-04T04:01:08;101418.91;;;3.03
63113;BMP280;49206;48.020;21.378;2022-12-04T04:02:16;101417.88;;;3.04
63113;BMP280;49206;48.020;21.378;2022-12-04T04:03:24;101415.84;;;3.11
63113;BMP280;49206;48.020;21.378;2022-12-04T04:04:34;101417.88;;;3.04
63113;BMP280;49206;48.020;21.378;2022-12-04T04:05:41;101415.75;;;3.01
63113;BMP280;49206;48.020;21.378;2022-12-04T04:06:58;101421.50;;;2.98
63113;BMP280;49206;48.020;21.378;2022-12-04T04:08:04;101417.34;;;3.02
63113;BMP280;49206;48.020;21.378;2022-12-04T04:09:28;101416.75;;;2.95
63113;BMP280;49206;48.020;21.378;2022-12-04T04:10:33;101414.19;;;3.00
63113;BMP280;49206;48.020;21.378;2022-12-04T04:11:57;101416.75;;;2.95
63113;BMP280;49206;48.020;21.378;2022-12-04T04:13:06;101414.94;;;2.95
63113;BMP280;49206;48.020;21.378;2022-12-04T04:14:36;101414.63;;;2.92
63113;BMP280;49206;48.020;21.378;2022-12-04T04:15:58;101414.16;;;2.95
63113;BMP280;49206;48.020;21.378;2022-12-04T04:17:24;101411.38;;;3.06
63113;BMP280;49206;48.020;21.378;2022-12-04T04:18:50;101410.00;;;2.99
63113;BMP280;49206;48.020;21.378;2022-12-04T04:20:17;101412.59;;;2.94
63113;BMP280;49206;48.020;21.378;2022-12-04T04:21:41;101420.16;;;2.95
63113;BMP280;49206;48.020;21.378;2022-12-04T04:23:04;101415.47;;;2.97
63113;BMP280;49206;48.020;21.378;2022-12-04T04:24:36;101413.09;;;2.96
63113;BMP280;49206;48.020;21.378;2022-12-04T04:25:41;101422.47;;;2.92
63113;BMP280;49206;48.020;21.378;2022-12-04T04:26:45;101413.34;;;2.89
63113;BMP280;49206;48.020;21.378;2022-12-04T04:27:53;101425.81;;;2.83
63113;BMP280;49206;48.020;21.378;2022-12-04T04:28:56;101421.66;;;2.82
63113;BMP280;49206;48.020;21.378;2022-12-04T04:29:59;101418.72;;;2.78
63113;BMP280;49206;48.020;21.378;2022-12-04T04:31:29;101416.38;;;2.76
63113;BMP280;49206;48.020;21.378;2022-12-04T04:32:36;101406.94;;;2.70
63113;BMP280;49206;48.020;21.378;2022-12-04T04:33:47;101404.56;;;2.69
63113;BMP280;49206;48.020;21.378;2022-12-04T04:35:05;101402.81;;;2.74
63113;BMP280;49206;48.020;21.378;2022-12-04T04:36:20;101403.00;;;2.68
63113;BMP280;49206;48.020;21.378;2022-12-04T04:38:50;101413.47;;;2.73
63113;BMP280;49206;48.020;21.378;2022-12-04T04:40:12;101409.78;;;2.69
63113;BMP280;49206;48.020;21.378;2022-12-04T04:41:20;101404.41;;;2.80
63113;BMP280;49206;48.020;21.378;2022-12-04T04:42:32;101403.63;;;2.80
63113;BMP280;49206;48.020;21.378;2022-12-04T04:43:42;101404.91;;;2.78
63113;BMP280;49206;48.020;21.378;2022-12-04T04:46:21;101398.88;;;2.72
63113;BMP280;49206;48.020;21.378;2022-12-04T04:47:45;101408.50;;;2.71
63113;BMP280;49206;48.020;21.378;2022-12-04T04:48:51;101408.78;;;2.70
63113;BMP280;49206;48.020;21.378;2022-12-04T04:49:56;101403.25;;;2.66
63113;BMP280;49206;48.020;21.378;2022-12-04T04:51:01;101405.63;;;2.68
63113;BMP280;49206;48.020;21.378;2022-12-04T04:52:04;101399.41;;;2.74
63113;BMP280;49206;48.020;21.378;2022-12-04T04:53:09;101401.50;;;2.77
63113;BMP280;49206;48.020;21.378;2022-12-04T04:54:13;101400.22;;;2.79
63113;BMP280;49206;48.020;21.378;2022-12-04T04:55:18;101390.38;;;2.87
63113;BMP280;49206;48.020;21.378;2022-12-04T04:56:22;101393.53;;;2.88
63113;BMP280;49206;48.020;21.378;2022-12-04T04:57:29;101390.16;;;2.93
63113;BMP280;49206;48.020;21.378;2022-12-04T04:58:33;101391.97;;;2.92
63113;BMP280;49206;48.020;21.378;2022-12-04T04:59:38;101399.81;;;2.97
63113;BMP280;49206;48.020;21.378;2022-12-04T05:00:45;101400.88;;;2.96
63113;BMP280;49206;48.020;21.378;2022-12-04T05:01:51;101395.66;;;2.96
63113;BMP280;49206;48.020;21.378;2022-12-04T05:02:53;101393.78;;;2.87
63113;BMP280;49206;48.020;21.378;2022-12-04T05:03:56;101395.38;;;2.93
63113;BMP280;49206;48.020;21.378;2022-12-04T05:04:58;101401.06;;;2.90
63113;BMP280;49206;48.020;21.378;2022-12-04T05:06:00;101401.09;;;2.95
63113;BMP280;49206;48.020;21.378;2022-12-04T05:07:02;101407.38;;;2.94
63113;BMP280;49206;48.020;21.378;2022-12-04T05:08:05;101409.16;;;2.88
63113;BMP280;49206;48.020;21.378;2022-12-04T05:09:07;101410.22;;;2.92
63113;BMP280;49206;48.020;21.378;2022-12-04T05:10:10;101408.13;;;2.94
63113;BMP280;49206;48.020;21.378;2022-12-04T05:11:13;101413.63;;;2.93
63113;BMP280;49206;48.020;21.378;2022-12-04T05:12:16;101415.44;;;2.88
63113;BMP280;49206;48.020;21.378;2022-12-04T05:13:19;101425.91;;;2.97
63113;BMP280;49206;48.020;21.378;2022-12-04T05:14:21;101421.97;;;2.95
63113;BMP280;49206;48.020;21.378;2022-12-04T05:15:23;101425.09;;;2.97
63113;BMP280;49206;48.020;21.378;2022-12-04T05:16:26;101424.88;;;2.98
63113;BMP280;49206;48.020;21.378;2022-12-04T05:17:28;101429.81;;;2.95
63113;BMP280;49206;48.020;21.378;2022-12-04T05:18:31;101430.28;;;2.87
63113;BMP280;49206;48.020;21.378;2022-12-04T05:19:34;101430.81;;;2.84
63113;BMP280;49206;48.020;21.378;2022-12-04T05:20:56;101431.28;;;2.81
63113;BMP280;49206;48.020;21.378;2022-12-04T05:21:58;101434.69;;;2.82
63113;BMP280;49206;48.020;21.378;2022-12-04T05:23:01;101430.25;;;2.82
63113;BMP280;49206;48.020;21.378;2022-12-04T05:24:03;101427.09;;;2.80
63113;BMP280;49206;48.020;21.378;2022-12-04T05:25:05;101421.09;;;2.79
63113;BMP280;49206;48.020;21.378;2022-12-04T05:26:08;101422.38;;;2.77
63113;BMP280;49206;48.020;21.378;2022-12-04T05:27:11;101419.78;;;2.77
63113;BMP280;49206;48.020;21.378;2022-12-04T05:28:13;101426.31;;;2.79
63113;BMP280;49206;48.020;21.378;2022-12-04T05:29:15;101417.91;;;2.72
63113;BMP280;49206;48.020;21.378;2022-12-04T05:30:19;101419.25;;;2.75
63113;BMP280;49206;48.020;21.378;2022-12-04T05:31:21;101413.72;;;2.71
63113;BMP280;49206;48.020;21.378;2022-12-04T05:32:26;101411.66;;;2.73
63113;BMP280;49206;48.020;21.378;2022-12-04T05:33:29;101411.66;;;2.73
63113;BMP280;49206;48.020;21.378;2022-12-04T05:34:32;101416.88;;;2.73
63113;BMP280;49206;48.020;21.378;2022-12-04T05:35:34;101420.81;;;2.76
63113;BMP280;49206;48.020;21.378;2022-12-04T05:36:37;101428.84;;;2.69
63113;BMP280;49206;48.020;21.378;2022-12-04T05:37:39;101428.00;;;2.64
63113;BMP280;49206;48.020;21.378;2022-12-04T05:38:42;101423.28;;;2.61
63113;BMP280;49206;48.020;21.378;2022-12-04T05:39:44;101427.56;;;2.72
63113;BMP280;49206;48.020;21.378;2022-12-04T05:40:46;101427.63;;;2.82
63113;BMP280;49206;48.020;21.378;2022-12-04T05:41:50;101438.00;;;2.72
63113;BMP280;49206;48.020;21.378;2022-12-04T05:42:52;101433.63;;;2.78
63113;BMP280;49206;48.020;21.378;2022-12-04T05:43:55;101436.94;;;2.73
63113;BMP280;49206;48.020;21.378;2022-12-04T05:44:57;101434.63;;;2.76
63113;BMP280;49206;48.020;21.378;2022-12-04T05:46:01;101429.38;;;2.71
63113;BMP280;49206;48.020;21.378;2022-12-04T05:47:04;101435.88;;;2.69
63113;BMP280;49206;48.020;21.378;2022-12-04T05:48:06;101437.16;;;2.66
63113;BMP280;49206;48.020;21.378;2022-12-04T05:49:09;101432.78;;;2.72
63113;BMP280;49206;48.020;21.378;2022-12-04T05:50:12;101441.59;;;2.66
63113;BMP280;49206;48.020;21.378;2022-12-04T05:51:15;101439.72;;;2.61
63113;BMP280;49206;48.020;21.378;2022-12-04T05:52:17;101438.47;;;2.69
63113;BMP280;49206;48.020;21.378;2022-12-04T05:53:19;101442.13;;;2.68
63113;BMP280;49206;48.020;21.378;2022-12-04T05:54:22;101438.81;;;2.78
63113;BMP280;49206;48.020;21.378;2022-12-04T05:55:25;101443.25;;;2.77
63113;BMP280;49206;48.020;21.378;2022-12-04T05:56:28;101440.06;;;2.70
63113;BMP280;49206;48.020;21.378;2022-12-04T05:57:30;101445.56;;;2.73
63113;BMP280;49206;48.020;21.378;2022-12-04T05:58:34;101447.63;;;2.71
63113;BMP280;49206;48.020;21.378;2022-12-04T05:59:37;101444.25;;;2.71
63113;BMP280;49206;48.020;21.378;2022-12-04T06:00:39;101440.84;;;2.70
63113;BMP280;49206;48.020;21.378;2022-12-04T06:01:42;101436.94;;;2.73
63113;BMP280;49206;48.020;21.378;2022-12-04T06:02:44;101428.09;;;2.74
63113;BMP280;49206;48.020;21.378;2022-12-04T06:03:47;101434.63;;;2.76
63113;BMP280;49206;48.020;21.378;2022-12-04T06:04:49;101432.00;;;2.76
63113;BMP280;49206;48.020;21.378;2022-12-04T06:05:52;101421.09;;;2.79
63113;BMP280;49206;48.020;21.378;2022-12-04T06:06:54;101425.59;;;2.84
63113;BMP280;49206;48.020;21.378;2022-12-04T06:07:57;101430.81;;;2.84
63113;BMP280;49206;48.020;21.378;2022-12-04T06:09:00;101426.09;;;2.86
63113;BMP280;49206;48.020;21.378;2022-12-04T06:10:03;101434.97;;;2.85
63113;BMP280;49206;48.020;21.378;2022-12-04T06:11:26;101431.81;;;2.83
63113;BMP280;49206;48.020;21.378;2022-12-04T06:12:29;101434.97;;;2.85
63113;BMP280;49206;48.020;21.378;2022-12-04T06:13:32;101428.97;;;2.84
63113;BMP280;49206;48.020;21.378;2022-12-04T06:14:34;101436.50;;;2.81
63113;BMP280;49206;48.020;21.378;2022-12-04T06:15:41;101441.19;;;2.79
63113;BMP280;49206;48.020;21.378;2022-12-04T06:16:44;101440.16;;;2.80
63113;BMP280;49206;48.020;21.378;2022-12-04T06:17:47;101440.69;;;2.82
63113;BMP280;49206;48.020;21.378;2022-12-04T06:18:51;101442.00;;;2.84
63113;BMP280;49206;48.020;21.378;2022-12-04T06:19:53;101442.25;;;2.83
63113;BMP280;49206;48.020;21.378;2022-12-04T06:20:57;101440.91;;;2.80
63113;BMP280;49206;48.020;21.378;2022-12-04T06:22:00;101448.25;;;2.83
63113;BMP280;49206;48.020;21.378;2022-12-04T06:23:02;101453.03;;;2.96
63113;BMP280;49206;48.020;21.378;2022-12-04T06:24:05;101449.09;;;2.94
63113;BMP280;49206;48.020;21.378;2022-12-04T06:25:08;101450.13;;;2.88
63113;BMP280;49206;48.020;21.378;2022-12-04T06:26:12;101450.66;;;2.95
63113;BMP280;49206;48.020;21.378;2022-12-04T06:27:14;101450.91;;;2.88
63113;BMP280;49206;48.020;21.378;2022-12-04T06:28:33;101457.97;;;2.88
63113;BMP280;49206;48.020;21.378;2022-12-04T06:29:35;101454.31;;;2.94
63113;BMP280;49206;48.020;21.378;2022-12-04T06:30:38;101463.19;;;2.93
63113;BMP280;49206;48.020;21.378;2022-12-04T06:31:40;101461.38;;;2.98
63113;BMP280;49206;48.020;21.378;2022-12-04T06:32:43;101466.31;;;2.95
63113;BMP280;49206;48.020;21.378;2022-12-04T06:33:45;101465.84;;;2.98
63113;BMP280;49206;48.020;21.378;2022-12-04T06:34:52;101470.81;;;2.99
63113;BMP280;49206;48.020;21.378;2022-12-04T06:36:03;101472.66;;;3.04
63113;BMP280;49206;48.020;21.378;2022-12-04T06:37:05;101468.44;;;2.98
63113;BMP280;49206;48.020;21.378;2022-12-04T06:38:07;101471.03;;;2.93
63113;BMP280;49206;48.020;21.378;2022-12-04T06:39:10;101471.03;;;2.93
63113;BMP280;49206;48.020;21.378;2022-12-04T06:40:19;101474.41;;;2.93
63113;BMP280;49206;48.020;21.378;2022-12-04T06:41:22;101466.81;;;2.92
63113;BMP280;49206;48.020;21.378;2022-12-04T06:42:25;101469.22;;;2.98
63113;BMP280;49206;48.020;21.378;2022-12-04T06:43:28;101464.25;;;2.97
63113;BMP280;49206;48.020;21.378;2022-12-04T06:44:30;101463.50;;;3.01
63113;BMP280;49206;48.020;21.378;2022-12-04T06:45:33;101464.59;;;3.05
63113;BMP280;49206;48.020;21.378;2022-12-04T06:46:36;101459.66;;;3.09
63113;BMP280;49206;48.020;21.378;2022-12-04T06:47:45;101461.53;;;3.13
63113;BMP280;49206;48.020;21.378;2022-12-04T06:48:48;101468.56;;;3.13